createdAt,value
2022-11-30T00:00:56.788Z,78582.38
2022-11-30T00:03:24.007Z,78576.41
2022-11-30T00:05:51.145Z,78574.41
2022-11-30T00:08:17.756Z,78556.53
2022-11-30T00:10:44.892Z,78558.50
2022-11-30T00:13:11.301Z,78574.41
2022-11-30T00:15:38.218Z,78576.41
2022-11-30T00:18:04.899Z,78576.41
2022-11-30T00:20:31.363Z,78586.34
2022-11-30T00:22:57.758Z,78598.28
2022-11-30T00:25:25.293Z,78586.34
2022-11-30T00:27:52.065Z,78590.31
2022-11-30T00:30:18.613Z,78590.31
2022-11-30T00:32:45.007Z,78588.34
2022-11-30T00:35:11.458Z,78586.34
2022-11-30T00:37:37.877Z,78582.38
2022-11-30T00:40:05.917Z,78580.38
2022-11-30T00:42:32.306Z,78584.34
2022-11-30T00:44:58.691Z,78594.31
2022-11-30T00:47:25.065Z,78588.34
2022-11-30T00:49:51.534Z,78578.41
2022-11-30T00:52:17.963Z,78604.25
2022-11-30T00:54:44.644Z,78590.31
2022-11-30T00:57:11.586Z,78594.31
2022-11-30T00:59:37.987Z,78604.25
2022-11-30T01:02:04.480Z,78604.25
2022-11-30T01:04:31.015Z,78618.16
2022-11-30T01:06:57.519Z,78608.22
2022-11-30T01:09:23.929Z,78592.31
2022-11-30T01:11:50.351Z,78598.28
2022-11-30T01:14:16.845Z,78592.31
2022-11-30T01:16:43.378Z,78596.28
2022-11-30T01:19:09.863Z,78606.22
2022-11-30T01:21:36.344Z,78602.25
2022-11-30T01:24:02.840Z,78586.34
2022-11-30T01:26:29.411Z,78610.22
2022-11-30T01:28:56.331Z,78612.19
2022-11-30T01:31:24.525Z,78608.22
2022-11-30T01:33:55.206Z,78606.22
2022-11-30T01:36:25.537Z,78616.16
2022-11-30T01:38:57.385Z,78602.25
2022-11-30T01:41:30.595Z,78606.22
2022-11-30T01:44:20.125Z,78624.13
2022-11-30T01:46:59.791Z,78640.03
2022-11-30T01:49:34.761Z,78644.00
2022-11-30T01:52:07.886Z,78630.09
2022-11-30T01:54:46.577Z,78618.16
2022-11-30T01:57:27.588Z,78634.06
2022-11-30T01:59:56.913Z,78634.06
2022-11-30T02:02:32.213Z,78622.13
2022-11-30T02:04:59.343Z,78620.16
2022-11-30T02:07:26.148Z,78630.09
2022-11-30T02:09:52.679Z,78636.06
2022-11-30T02:12:32.438Z,78642.03
2022-11-30T02:15:08.401Z,78649.97
2022-11-30T02:17:45.712Z,78626.13
2022-11-30T02:20:37.346Z,78642.03
2022-11-30T02:23:44.648Z,78630.09
2022-11-30T02:26:38.684Z,78642.03
2022-11-30T02:29:21.230Z,78636.06
2022-11-30T02:32:19.236Z,78644.00
2022-11-30T02:34:47.956Z,78624.13
2022-11-30T02:37:16.101Z,78647.97
2022-11-30T02:39:43.787Z,78630.09
2022-11-30T02:42:13.040Z,78632.06
2022-11-30T02:44:47.466Z,78624.13
2022-11-30T02:47:22.747Z,78636.06
2022-11-30T02:49:52.320Z,78630.09
2022-11-30T02:52:22.326Z,78624.13
2022-11-30T02:54:49.093Z,78659.91
2022-11-30T02:57:15.568Z,78653.94
2022-11-30T02:59:42.140Z,78661.91
2022-11-30T03:02:08.639Z,78653.94
2022-11-30T03:04:35.115Z,78655.94
2022-11-30T03:07:01.644Z,78653.94
2022-11-30T03:09:27.999Z,78663.91
2022-11-30T03:11:54.428Z,78677.81
2022-11-30T03:14:20.771Z,78653.94
2022-11-30T03:16:47.137Z,78651.97
2022-11-30T03:19:14.214Z,78665.88
2022-11-30T03:21:40.576Z,78657.94
2022-11-30T03:24:07.371Z,78651.97
2022-11-30T03:26:33.767Z,78655.94
2022-11-30T03:29:00.145Z,78663.91
2022-11-30T03:31:26.585Z,78649.97
2022-11-30T03:33:53.004Z,78653.94
2022-11-30T03:36:19.409Z,78657.94
2022-11-30T03:38:47.520Z,78661.91
2022-11-30T03:41:16.412Z,78665.88
2022-11-30T03:43:44.344Z,78677.81
2022-11-30T03:46:11.131Z,78679.81
2022-11-30T03:48:38.028Z,78673.84
2022-11-30T03:51:05.563Z,78693.72
2022-11-30T03:53:32.440Z,78667.88
2022-11-30T03:56:02.083Z,78671.84
2022-11-30T03:58:28.826Z,78693.72
2022-11-30T04:01:04.083Z,78683.78
2022-11-30T04:03:30.768Z,78669.84
2022-11-30T04:05:58.472Z,78691.72
2022-11-30T04:08:25.663Z,78703.66
2022-11-30T04:10:53.853Z,78709.63
2022-11-30T04:13:21.674Z,78713.59
2022-11-30T04:15:49.264Z,78703.66
2022-11-30T04:18:16.420Z,78707.63
2022-11-30T04:20:43.011Z,78715.59
2022-11-30T04:23:10.403Z,78711.63
2022-11-30T04:25:41.515Z,78715.59
2022-11-30T04:28:08.643Z,78711.63
2022-11-30T04:30:36.363Z,78727.53
2022-11-30T04:33:03.279Z,78717.59
2022-11-30T04:35:29.815Z,78705.66
2022-11-30T04:37:56.243Z,78727.53
2022-11-30T04:40:22.665Z,78715.59
2022-11-30T04:42:49.033Z,78723.53
2022-11-30T04:45:15.615Z,78733.50
2022-11-30T04:47:42.440Z,78737.47
2022-11-30T04:50:09.279Z,78739.44
2022-11-30T04:52:35.963Z,78743.44
2022-11-30T04:55:04.364Z,78729.50
2022-11-30T04:57:31.611Z,78745.41
2022-11-30T04:59:57.978Z,78745.41
2022-11-30T05:02:24.468Z,78755.34
2022-11-30T05:04:51.245Z,78749.41
2022-11-30T05:07:17.898Z,78751.38
2022-11-30T05:09:44.404Z,78751.38
2022-11-30T05:12:10.760Z,78755.34
2022-11-30T05:14:37.137Z,78755.34
2022-11-30T05:17:03.832Z,78749.41
2022-11-30T05:19:30.220Z,78745.41
2022-11-30T05:21:56.615Z,78755.34
2022-11-30T05:24:23.029Z,78759.34
2022-11-30T05:26:49.421Z,78759.34
2022-11-30T05:29:15.792Z,78759.34
2022-11-30T05:31:42.205Z,78753.38
2022-11-30T05:34:08.608Z,78745.41
2022-11-30T05:36:35.120Z,78749.41
2022-11-30T05:39:01.609Z,78755.34
2022-11-30T05:41:27.970Z,78761.31
2022-11-30T05:43:54.418Z,78761.31
2022-11-30T05:46:20.828Z,78773.25
2022-11-30T05:48:47.269Z,78769.28
2022-11-30T05:51:15.864Z,78743.44
2022-11-30T05:53:43.273Z,78761.31
2022-11-30T05:56:12.697Z,78763.31
2022-11-30T05:58:39.817Z,78757.34
2022-11-30T06:01:06.670Z,78763.31
2022-11-30T06:03:34.905Z,78757.34
2022-11-30T06:06:04.463Z,78779.22
2022-11-30T06:08:30.806Z,78773.25
2022-11-30T06:11:01.013Z,78765.31
2022-11-30T06:13:28.933Z,78767.28
2022-11-30T06:15:59.481Z,78775.25
2022-11-30T06:18:26.069Z,78777.22
2022-11-30T06:20:52.499Z,78763.31
2022-11-30T06:23:18.872Z,78775.25
2022-11-30T06:25:45.243Z,78779.22
2022-11-30T06:28:12.016Z,78785.19
2022-11-30T06:30:38.381Z,78789.16
2022-11-30T06:33:04.782Z,78799.09
2022-11-30T06:35:31.202Z,78789.16
2022-11-30T06:37:57.627Z,78797.13
2022-11-30T06:40:24.002Z,78797.13
2022-11-30T06:42:50.353Z,78791.16
2022-11-30T06:45:16.884Z,78785.19
2022-11-30T06:47:43.229Z,78787.19
2022-11-30T06:50:09.819Z,78803.09
2022-11-30T06:52:36.182Z,78795.13
2022-11-30T06:55:02.710Z,78801.09
2022-11-30T06:57:29.832Z,78789.16
2022-11-30T06:59:56.884Z,78799.09
2022-11-30T07:02:23.518Z,78811.03
2022-11-30T07:04:50.314Z,78797.13
2022-11-30T07:07:16.823Z,78811.03
2022-11-30T07:09:43.181Z,78807.06
2022-11-30T07:12:09.567Z,78807.06
2022-11-30T07:14:36.012Z,78809.06
2022-11-30T07:17:05.253Z,78803.09
2022-11-30T07:19:34.433Z,78785.19
2022-11-30T07:22:01.204Z,78797.13
2022-11-30T07:24:46.728Z,78807.06
2022-11-30T07:27:13.231Z,78813.03
2022-11-30T07:29:39.620Z,78811.03
2022-11-30T07:32:06.059Z,78817.00
2022-11-30T07:34:32.447Z,78813.03
2022-11-30T07:36:58.801Z,78801.09
2022-11-30T07:39:25.159Z,78785.19
2022-11-30T07:41:51.507Z,78803.09
2022-11-30T07:44:17.930Z,78787.19
2022-11-30T07:46:44.474Z,78787.19
2022-11-30T07:49:10.925Z,78799.09
2022-11-30T07:51:37.558Z,78791.16
2022-11-30T07:54:05.079Z,78785.19
2022-11-30T07:56:31.564Z,78783.19
2022-11-30T07:59:01.154Z,78779.22
2022-11-30T08:01:30.779Z,78757.34
2022-11-30T08:03:58.139Z,78757.34
2022-11-30T08:06:27.256Z,78763.31
2022-11-30T08:08:56.458Z,78753.38
2022-11-30T08:11:26.400Z,78765.31
2022-11-30T08:13:53.895Z,78769.28
2022-11-30T08:16:22.960Z,78751.38
2022-11-30T08:18:49.969Z,78743.44
2022-11-30T08:21:19.375Z,78735.47
2022-11-30T08:23:48.513Z,78731.50
2022-11-30T08:26:17.820Z,78709.63
2022-11-30T08:28:45.911Z,78713.59
2022-11-30T08:31:21.791Z,78709.63
2022-11-30T08:33:48.854Z,78707.63
2022-11-30T08:36:21.856Z,78691.72
2022-11-30T08:38:48.971Z,78685.75
2022-11-30T08:41:19.216Z,78685.75
2022-11-30T08:43:46.841Z,78661.91
2022-11-30T08:46:49.119Z,78689.75
2022-11-30T08:49:20.277Z,78699.69
2022-11-30T08:54:37.256Z,78703.66
2022-11-30T08:57:03.848Z,78683.78
2022-11-30T08:59:33.160Z,78671.84
2022-11-30T09:01:59.560Z,78681.78
2022-11-30T09:04:25.938Z,78661.91
2022-11-30T09:06:52.315Z,78681.78
2022-11-30T09:09:18.673Z,78683.78
2022-11-30T09:11:45.052Z,78687.75
2022-11-30T09:14:11.662Z,78691.72
2022-11-30T09:16:38.095Z,78685.75
2022-11-30T09:19:04.463Z,78657.94
2022-11-30T09:21:31.033Z,78653.94
2022-11-30T09:23:57.872Z,78649.97
2022-11-30T09:26:27.217Z,78657.94
2022-11-30T09:28:54.678Z,78669.84
2022-11-30T09:31:24.032Z,78657.94
2022-11-30T09:33:51.098Z,78655.94
2022-11-30T09:36:20.128Z,78649.97
2022-11-30T09:38:47.059Z,78638.03
2022-11-30T09:41:38.740Z,78624.13
2022-11-30T09:44:17.060Z,78608.22
2022-11-30T09:46:52.716Z,78588.34
2022-11-30T09:49:24.507Z,78582.38
2022-11-30T09:51:54.267Z,78542.59
2022-11-30T09:54:42.022Z,78538.63
2022-11-30T09:57:17.321Z,78514.78
2022-11-30T09:59:51.872Z,78502.84
2022-11-30T10:02:18.561Z,78496.88
2022-11-30T10:04:45.800Z,78457.09
2022-11-30T10:07:27.426Z,78473.00
2022-11-30T10:10:58.563Z,78451.16
2022-11-30T10:13:35.575Z,78427.28
2022-11-30T10:16:16.515Z,78425.28
2022-11-30T10:19:00.496Z,78411.38
2022-11-30T10:22:01.816Z,78443.19
2022-11-30T10:24:56.169Z,78435.25
2022-11-30T10:27:48.753Z,78445.19
2022-11-30T10:30:22.475Z,78431.25
2022-11-30T10:32:54.433Z,78429.28
2022-11-30T10:35:41.327Z,78411.38
2022-11-30T10:38:23.907Z,78407.41
2022-11-30T10:40:56.268Z,78395.47
2022-11-30T10:43:38.340Z,78385.53
2022-11-30T10:46:05.363Z,78391.50
2022-11-30T10:48:40.414Z,78401.44
2022-11-30T10:51:07.989Z,78401.44
2022-11-30T10:53:34.670Z,78423.31
2022-11-30T10:56:10.893Z,78423.31
2022-11-30T10:59:04.393Z,78423.31
2022-11-30T11:01:39.279Z,78441.19
2022-11-30T11:04:22.740Z,78447.16
2022-11-30T11:06:53.581Z,78439.22
2022-11-30T11:09:49.173Z,78459.09
2022-11-30T11:12:24.543Z,78473.00
2022-11-30T11:15:19.835Z,78469.03
2022-11-30T11:17:47.102Z,78496.88
2022-11-30T11:20:28.861Z,78512.78
2022-11-30T11:22:55.535Z,78526.69
2022-11-30T11:25:29.016Z,78544.59
2022-11-30T11:28:08.774Z,78566.47
2022-11-30T11:30:37.304Z,78616.16
2022-11-30T11:33:12.784Z,78592.31
2022-11-30T11:35:46.188Z,78596.28
2022-11-30T11:38:52.159Z,78606.22
2022-11-30T11:41:24.575Z,78606.22
2022-11-30T11:44:03.169Z,78614.19
2022-11-30T11:46:36.611Z,78628.09
2022-11-30T11:49:25.987Z,78659.91
2022-11-30T11:52:04.761Z,78669.84
2022-11-30T11:54:46.698Z,78685.75
2022-11-30T11:57:16.124Z,78701.66
2022-11-30T11:59:54.961Z,78735.47
2022-11-30T12:02:57.521Z,78737.47
2022-11-30T12:05:31.668Z,78733.50
2022-11-30T12:08:13.401Z,78747.41
2022-11-30T12:10:52.821Z,78761.31
2022-11-30T12:13:22.666Z,78795.13
2022-11-30T12:16:15.043Z,78801.09
2022-11-30T12:19:12.830Z,78822.97
2022-11-30T12:21:54.523Z,78852.78
2022-11-30T12:25:01.351Z,78852.78
2022-11-30T12:27:53.798Z,78864.72
2022-11-30T12:30:32.088Z,78880.63
2022-11-30T12:33:07.477Z,78880.63
2022-11-30T12:36:02.110Z,78894.56
2022-11-30T12:38:59.487Z,78918.41
2022-11-30T12:41:58.428Z,78942.28
2022-11-30T12:45:09.312Z,78956.19
2022-11-30T12:48:04.573Z,78976.09
2022-11-30T12:50:46.559Z,79005.91
2022-11-30T12:53:28.109Z,78992.00
2022-11-30T12:56:23.179Z,79021.81
2022-11-30T12:59:17.390Z,79009.88
2022-11-30T13:02:12.604Z,78992.00
2022-11-30T13:05:03.903Z,78993.97
2022-11-30T13:07:38.218Z,78999.94
2022-11-30T13:10:08.630Z,79005.91
2022-11-30T13:12:37.804Z,78995.97
2022-11-30T13:15:17.537Z,79013.88
2022-11-30T13:17:45.556Z,79039.72
2022-11-30T13:21:03.229Z,79043.69
2022-11-30T13:23:37.011Z,79063.59
2022-11-30T13:26:27.207Z,79077.50
2022-11-30T13:29:28.913Z,79119.25
2022-11-30T13:32:05.314Z,79113.31
2022-11-30T13:34:32.802Z,79099.38
2022-11-30T13:37:12.605Z,79105.34
2022-11-30T13:39:53.522Z,79103.34
2022-11-30T13:42:50.256Z,79109.31
2022-11-30T13:45:25.700Z,79107.34
2022-11-30T13:47:54.705Z,79091.44
2022-11-30T13:50:34.523Z,79099.38
2022-11-30T13:53:01.601Z,79107.34
2022-11-30T13:55:43.354Z,79099.38
2022-11-30T13:58:11.497Z,79097.38
2022-11-30T14:00:37.865Z,79075.50
2022-11-30T14:03:22.568Z,79101.38
2022-11-30T14:06:39.553Z,79101.38
2022-11-30T14:09:35.756Z,79117.28
2022-11-30T14:12:44.355Z,79123.25
2022-11-30T14:15:39.423Z,79123.25
2022-11-30T14:18:08.780Z,79113.31
2022-11-30T14:20:48.668Z,79139.16
2022-11-30T14:23:55.309Z,79151.09
2022-11-30T14:26:30.368Z,79174.94
2022-11-30T14:29:19.780Z,79190.84
2022-11-30T14:32:20.955Z,79196.81
2022-11-30T14:34:54.465Z,79196.81
2022-11-30T14:37:27.781Z,79190.84
2022-11-30T14:39:56.615Z,79174.94
2022-11-30T14:42:28.864Z,79172.97
2022-11-30T14:44:56.192Z,79168.97
2022-11-30T14:47:33.113Z,79186.88
2022-11-30T14:50:05.813Z,79178.94
2022-11-30T14:53:14.871Z,79178.94
2022-11-30T14:56:08.173Z,79192.84
2022-11-30T14:58:47.664Z,79182.91
2022-11-30T15:01:20.965Z,79188.88
2022-11-30T15:03:49.541Z,79180.91
2022-11-30T15:06:21.968Z,79218.69
2022-11-30T15:08:54.987Z,79192.84
2022-11-30T15:11:21.822Z,79188.88
2022-11-30T15:13:50.805Z,79190.84
2022-11-30T15:16:30.462Z,79194.84
2022-11-30T15:18:58.911Z,79182.91
2022-11-30T15:21:29.337Z,79192.84
2022-11-30T15:23:58.983Z,79163.00
2022-11-30T15:26:48.752Z,79176.94
2022-11-30T15:29:21.866Z,79167.00
2022-11-30T15:31:51.661Z,79161.03
2022-11-30T15:34:42.374Z,79170.97
2022-11-30T15:37:08.829Z,79161.03
2022-11-30T15:39:35.426Z,79165.00
2022-11-30T15:42:04.196Z,79161.03
2022-11-30T15:44:44.061Z,79190.84
2022-11-30T15:47:34.906Z,79186.88
2022-11-30T15:50:01.555Z,79192.84
2022-11-30T15:52:30.135Z,79190.84
2022-11-30T15:54:59.624Z,79186.88
2022-11-30T15:57:27.564Z,79188.88
2022-11-30T16:00:08.257Z,79192.84
2022-11-30T16:02:37.119Z,79196.81
2022-11-30T16:05:25.083Z,79186.88
2022-11-30T16:07:59.350Z,79194.84
2022-11-30T16:10:29.829Z,79206.75
2022-11-30T16:12:56.237Z,79192.84
2022-11-30T16:15:26.278Z,79180.91
2022-11-30T16:18:09.548Z,79184.88
2022-11-30T16:20:36.003Z,79182.91
2022-11-30T16:23:05.817Z,79184.88
2022-11-30T16:25:32.597Z,79202.78
2022-11-30T16:27:58.960Z,79194.84
2022-11-30T16:30:25.316Z,79178.94
2022-11-30T16:32:51.676Z,79178.94
2022-11-30T16:35:24.419Z,79186.88
2022-11-30T16:37:51.374Z,79174.94
2022-11-30T16:40:18.813Z,79176.94
2022-11-30T16:42:45.423Z,79192.84
2022-11-30T16:45:18.963Z,79178.94
2022-11-30T16:47:45.350Z,79188.88
2022-11-30T16:50:13.074Z,79194.84
2022-11-30T16:52:40.137Z,79210.75
2022-11-30T16:55:17.555Z,79210.75
2022-11-30T16:57:44.189Z,79212.72
2022-11-30T17:00:13.173Z,79220.69
2022-11-30T17:02:44.799Z,79218.69
2022-11-30T17:05:13.750Z,79222.69
2022-11-30T17:07:40.218Z,79234.59
2022-11-30T17:10:07.120Z,79214.72
2022-11-30T17:12:35.471Z,79220.69
2022-11-30T17:15:02.627Z,79214.72
2022-11-30T17:17:29.016Z,79226.66
2022-11-30T17:19:55.424Z,79220.69
2022-11-30T17:22:22.032Z,79220.69
2022-11-30T17:24:48.663Z,79208.75
2022-11-30T17:27:15.212Z,79214.72
2022-11-30T17:29:43.095Z,79212.72
2022-11-30T17:32:09.488Z,79212.72
2022-11-30T17:34:35.964Z,79220.69
2022-11-30T17:37:02.329Z,79222.69
2022-11-30T17:39:28.714Z,79220.69
2022-11-30T17:41:55.141Z,79216.72
2022-11-30T17:44:21.503Z,79210.75
2022-11-30T17:46:48.480Z,79230.63
2022-11-30T17:49:15.173Z,79216.72
2022-11-30T17:51:41.547Z,79234.59
2022-11-30T17:54:07.984Z,79232.63
2022-11-30T17:56:35.813Z,79224.66
2022-11-30T17:59:02.332Z,79226.66
2022-11-30T18:01:28.835Z,79236.59
2022-11-30T18:03:55.604Z,79258.47
2022-11-30T18:06:22.223Z,79246.53
2022-11-30T18:08:48.898Z,79262.44
2022-11-30T18:11:18.895Z,79262.44
2022-11-30T18:13:45.618Z,79262.44
2022-11-30T18:16:14.949Z,79286.31
2022-11-30T18:18:47.443Z,79314.16
2022-11-30T18:21:17.810Z,79306.19
2022-11-30T18:23:44.260Z,79278.38
2022-11-30T18:26:13.414Z,79304.22
2022-11-30T18:28:39.879Z,79298.25
2022-11-30T18:31:06.712Z,79308.19
2022-11-30T18:33:34.420Z,79320.13
2022-11-30T18:36:01.219Z,79302.22
2022-11-30T18:38:32.874Z,79290.28
2022-11-30T18:41:04.178Z,79292.28
2022-11-30T18:43:31.692Z,79320.13
2022-11-30T18:46:03.582Z,79324.09
2022-11-30T18:48:30.046Z,79314.16
2022-11-30T18:50:56.513Z,79310.19
2022-11-30T18:53:22.878Z,79304.22
2022-11-30T18:55:49.273Z,79320.13
2022-11-30T18:58:15.678Z,79314.16
2022-11-30T19:00:42.104Z,79316.16
2022-11-30T19:03:08.583Z,79336.03
2022-11-30T19:05:38.172Z,79336.03
2022-11-30T19:08:08.242Z,79336.03
2022-11-30T19:10:36.183Z,79318.13
2022-11-30T19:13:04.061Z,79310.19
2022-11-30T19:15:41.189Z,79322.13
2022-11-30T19:18:10.668Z,79310.19
2022-11-30T19:20:39.126Z,79296.25
2022-11-30T19:23:05.668Z,79310.19
2022-11-30T19:25:32.378Z,79298.25
2022-11-30T19:27:58.758Z,79314.16
2022-11-30T19:30:26.288Z,79318.13
2022-11-30T19:32:53.618Z,79314.16
2022-11-30T19:35:20.743Z,79296.25
2022-11-30T19:37:47.123Z,79320.13
2022-11-30T19:40:13.570Z,79312.16
2022-11-30T19:42:39.978Z,79316.16
2022-11-30T19:45:06.962Z,79330.06
2022-11-30T19:47:33.366Z,79344.00
2022-11-30T19:49:59.752Z,79344.00
2022-11-30T19:52:26.133Z,79357.91
2022-11-30T19:54:52.492Z,79353.94
2022-11-30T19:57:18.867Z,79353.94
2022-11-30T19:59:46.204Z,79371.84
2022-11-30T20:02:12.637Z,79371.84
2022-11-30T20:04:39.809Z,79361.88
2022-11-30T20:07:06.167Z,79345.97
2022-11-30T20:09:32.909Z,79342.00
2022-11-30T20:11:59.272Z,79336.03
2022-11-30T20:14:25.647Z,79342.00
2022-11-30T20:16:52.970Z,79361.88
2022-11-30T20:19:19.368Z,79357.91
2022-11-30T20:21:45.983Z,79361.88
2022-11-30T20:24:12.356Z,79377.81
2022-11-30T20:26:41.311Z,79363.88
2022-11-30T20:29:12.451Z,79361.88
2022-11-30T20:31:39.279Z,79359.91
2022-11-30T20:34:08.015Z,79365.88
2022-11-30T20:36:35.365Z,79371.84
2022-11-30T20:39:02.881Z,79373.81
2022-11-30T20:41:29.513Z,79389.72
2022-11-30T20:43:56.228Z,79365.88
2022-11-30T20:46:25.604Z,79375.81
2022-11-30T20:48:52.159Z,79369.84
2022-11-30T20:51:32.138Z,79387.75
2022-11-30T20:54:01.458Z,79413.59
2022-11-30T20:56:27.918Z,79405.66
2022-11-30T20:58:54.329Z,79429.50
2022-11-30T21:01:22.576Z,79417.56
2022-11-30T21:03:49.510Z,79421.56
2022-11-30T21:06:16.396Z,79429.50
2022-11-30T21:08:43.300Z,79415.59
2022-11-30T21:11:12.654Z,79421.56
2022-11-30T21:13:40.321Z,79425.53
2022-11-30T21:16:07.289Z,79425.53
2022-11-30T21:18:34.983Z,79413.59
2022-11-30T21:21:06.892Z,79415.59
2022-11-30T21:23:33.425Z,79415.59
2022-11-30T21:26:13.640Z,79401.66
2022-11-30T21:28:40.048Z,79413.59
2022-11-30T21:31:06.529Z,79441.44
2022-11-30T21:33:33.018Z,79441.44
2022-11-30T21:35:59.413Z,79441.44
2022-11-30T21:38:25.778Z,79447.41
2022-11-30T21:41:00.027Z,79439.44
2022-11-30T21:43:28.275Z,79451.38
2022-11-30T21:46:04.180Z,79417.56
2022-11-30T21:48:32.819Z,79405.66
2022-11-30T21:51:00.992Z,79403.66
2022-11-30T21:53:28.738Z,79423.53
2022-11-30T21:55:56.029Z,79439.44
2022-11-30T21:58:22.964Z,79417.56
2022-11-30T22:00:56.936Z,79427.53
2022-11-30T22:03:23.588Z,79419.56
2022-11-30T22:06:00.161Z,79453.38
2022-11-30T22:08:27.310Z,79445.41
2022-11-30T22:10:53.702Z,79445.41
2022-11-30T22:13:20.658Z,79447.41
2022-11-30T22:15:47.099Z,79429.50
2022-11-30T22:18:13.507Z,79427.53
2022-11-30T22:20:39.857Z,79435.47
2022-11-30T22:23:06.247Z,79427.53
2022-11-30T22:25:32.628Z,79421.56
2022-11-30T22:27:59.003Z,79431.50
2022-11-30T22:30:25.378Z,79415.59
2022-11-30T22:32:51.920Z,79433.50
2022-11-30T22:35:18.305Z,79427.53
2022-11-30T22:37:44.675Z,79425.53
2022-11-30T22:40:11.764Z,79413.59
2022-11-30T22:42:38.153Z,79421.56
2022-11-30T22:45:05.285Z,79427.53
2022-11-30T22:47:31.649Z,79421.56
2022-11-30T22:49:58.456Z,79429.50
2022-11-30T22:52:42.266Z,79403.66
2022-11-30T22:55:11.388Z,79425.53
2022-11-30T22:57:37.968Z,79429.50
2022-11-30T23:00:05.310Z,79425.53
2022-11-30T23:02:31.730Z,79437.47
2022-11-30T23:04:58.128Z,79429.50
2022-11-30T23:07:28.932Z,79433.50
2022-11-30T23:09:58.361Z,79405.66
2022-11-30T23:12:43.333Z,79395.69
2022-11-30T23:15:11.239Z,79389.72
2022-11-30T23:17:37.599Z,79387.75
2022-11-30T23:20:04.523Z,79399.69
2022-11-30T23:22:30.899Z,79423.53
2022-11-30T23:24:57.291Z,79411.59
2022-11-30T23:27:23.659Z,79401.66
2022-11-30T23:29:50.248Z,79397.69
2022-11-30T23:32:16.782Z,79401.66
2022-11-30T23:34:46.871Z,79417.56
2022-11-30T23:37:15.734Z,79411.59
2022-11-30T23:39:42.183Z,79413.59
2022-11-30T23:42:08.541Z,79415.59
2022-11-30T23:44:34.907Z,79423.53
2022-11-30T23:47:01.283Z,79429.50
2022-11-30T23:49:27.746Z,79413.59
2022-11-30T23:51:54.123Z,79397.69
2022-11-30T23:54:20.594Z,79417.56
2022-11-30T23:56:47.002Z,79431.50
2022-11-30T23:59:13.375Z,79433.50
